sensor_id;sensor_type;location;lat;lon;timestamp;P1;durP1;ratioP1;P2;durP2;ratioP2
3867;SDS011;1949;48.152;11.528;2024-02-15T00:01:16;1.97;;;1.20;;
3867;SDS011;1949;48.152;11.528;2024-02-15T00:03:42;3.13;;;1.30;;
3867;SDS011;1949;48.152;11.528;2024-02-15T00:06:07;7.40;;;1.23;;
3867;SDS011;1949;48.152;11.528;2024-02-15T00:08:33;2.90;;;1.10;;
3867;SDS011;1949;48.152;11.528;2024-02-15T00:11:00;1.03;;;0.93;;
3867;SDS011;1949;48.152;11.528;2024-02-15T00:13:26;1.53;;;1.20;;
3867;SDS011;1949;48.152;11.528;2024-02-15T00:15:52;1.50;;;1.03;;
3867;SDS011;1949;48.152;11.528;2024-02-15T00:18:19;1.93;;;1.00;;
3867;SDS011;1949;48.152;11.528;2024-02-15T00:20:45;1.30;;;1.00;;
3867;SDS011;1949;48.152;11.528;2024-02-15T00:23:13;2.57;;;1.40;;
3867;SDS011;1949;48.152;11.528;2024-02-15T00:25:41;2.30;;;1.40;;
3867;SDS011;1949;48.152;11.528;2024-02-15T00:28:10;2.70;;;1.10;;
3867;SDS011;1949;48.152;11.528;2024-02-15T00:30:37;1.27;;;1.17;;
3867;SDS011;1949;48.152;11.528;2024-02-15T00:33:02;3.13;;;1.10;;
3867;SDS011;1949;48.152;11.528;2024-02-15T00:35:28;1.40;;;1.30;;
3867;SDS011;1949;48.152;11.528;2024-02-15T00:37:54;2.23;;;1.00;;
3867;SDS011;1949;48.152;11.528;2024-02-15T00:40:20;1.70;;;1.27;;
3867;SDS011;1949;48.152;11.528;2024-02-15T00:42:46;1.60;;;0.83;;
3867;SDS011;1949;48.152;11.528;2024-02-15T00:45:12;4.50;;;1.77;;
3867;SDS011;1949;48.152;11.528;2024-02-15T00:47:38;2.50;;;1.50;;
3867;SDS011;1949;48.152;11.528;2024-02-15T00:50:07;1.90;;;1.13;;
3867;SDS011;1949;48.152;11.528;2024-02-15T00:52:34;1.53;;;1.20;;
3867;SDS011;1949;48.152;11.528;2024-02-15T00:54:59;17.97;;;1.47;;
3867;SDS011;1949;48.152;11.528;2024-02-15T00:57:25;2.87;;;1.73;;
3867;SDS011;1949;48.152;11.528;2024-02-15T00:59:51;1.30;;;1.20;;
3867;SDS011;1949;48.152;11.528;2024-02-15T01:02:17;2.80;;;1.27;;
3867;SDS011;1949;48.152;11.528;2024-02-15T01:04:43;2.20;;;1.40;;
3867;SDS011;1949;48.152;11.528;2024-02-15T01:07:12;1.40;;;1.20;;
3867;SDS011;1949;48.152;11.528;2024-02-15T01:09:39;1.90;;;0.90;;
3867;SDS011;1949;48.152;11.528;2024-02-15T01:12:05;5.90;;;1.40;;
3867;SDS011;1949;48.152;11.528;2024-02-15T01:14:31;2.13;;;1.40;;
3867;SDS011;1949;48.152;11.528;2024-02-15T01:16:57;2.23;;;1.10;;
3867;SDS011;1949;48.152;11.528;2024-02-15T01:19:22;2.03;;;1.10;;
3867;SDS011;1949;48.152;11.528;2024-02-15T01:21:48;1.20;;;0.93;;
3867;SDS011;1949;48.152;11.528;2024-02-15T01:24:14;2.50;;;1.10;;
3867;SDS011;1949;48.152;11.528;2024-02-15T01:26:40;2.43;;;1.10;;
3867;SDS011;1949;48.152;11.528;2024-02-15T01:29:06;2.40;;;1.10;;
3867;SDS011;1949;48.152;11.528;2024-02-15T01:31:37;2.73;;;1.30;;
3867;SDS011;1949;48.152;11.528;2024-02-15T01:34:03;5.57;;;1.97;;
3867;SDS011;1949;48.152;11.528;2024-02-15T01:36:29;2.57;;;1.50;;
3867;SDS011;1949;48.152;11.528;2024-02-15T01:38:55;1.93;;;1.20;;
3867;SDS011;1949;48.152;11.528;2024-02-15T01:41:21;2.50;;;1.87;;
3867;SDS011;1949;48.152;11.528;2024-02-15T01:43:48;3.53;;;1.43;;
3867;SDS011;1949;48.152;11.528;2024-02-15T01:46:15;1.50;;;1.20;;
3867;SDS011;1949;48.152;11.528;2024-02-15T01:48:41;2.23;;;1.30;;
3867;SDS011;1949;48.152;11.528;2024-02-15T01:51:07;1.50;;;1.30;;
3867;SDS011;1949;48.152;11.528;2024-02-15T01:53:37;1.83;;;1.17;;
3867;SDS011;1949;48.152;11.528;2024-02-15T01:56:04;2.27;;;1.40;;
3867;SDS011;1949;48.152;11.528;2024-02-15T01:58:30;6.23;;;1.30;;
3867;SDS011;1949;48.152;11.528;2024-02-15T02:00:58;1.87;;;1.27;;
3867;SDS011;1949;48.152;11.528;2024-02-15T02:03:26;2.07;;;1.30;;
3867;SDS011;1949;48.152;11.528;2024-02-15T02:05:53;2.57;;;1.10;;
3867;SDS011;1949;48.152;11.528;2024-02-15T02:08:19;1.63;;;1.10;;
3867;SDS011;1949;48.152;11.528;2024-02-15T02:10:45;2.00;;;1.27;;
3867;SDS011;1949;48.152;11.528;2024-02-15T02:13:11;2.70;;;1.33;;
3867;SDS011;1949;48.152;11.528;2024-02-15T02:15:37;3.10;;;1.40;;
3867;SDS011;1949;48.152;11.528;2024-02-15T02:18:03;3.00;;;1.50;;
3867;SDS011;1949;48.152;11.528;2024-02-15T02:20:34;2.90;;;1.60;;
3867;SDS011;1949;48.152;11.528;2024-02-15T02:23:10;1.43;;;1.10;;
3867;SDS011;1949;48.152;11.528;2024-02-15T02:25:39;1.10;;;1.07;;
3867;SDS011;1949;48.152;11.528;2024-02-15T02:28:07;4.27;;;1.47;;
3867;SDS011;1949;48.152;11.528;2024-02-15T02:30:33;3.87;;;1.00;;
3867;SDS011;1949;48.152;11.528;2024-02-15T02:33:00;1.53;;;1.20;;
3867;SDS011;1949;48.152;11.528;2024-02-15T02:35:26;2.10;;;1.20;;
3867;SDS011;1949;48.152;11.528;2024-02-15T02:37:55;6.20;;;1.00;;
3867;SDS011;1949;48.152;11.528;2024-02-15T02:40:21;2.00;;;1.27;;
3867;SDS011;1949;48.152;11.528;2024-02-15T02:45:14;1.70;;;1.10;;
3867;SDS011;1949;48.152;11.528;2024-02-15T02:47:40;1.67;;;1.10;;
3867;SDS011;1949;48.152;11.528;2024-02-15T02:50:06;1.93;;;1.13;;
3867;SDS011;1949;48.152;11.528;2024-02-15T02:52:33;1.30;;;1.20;;
3867;SDS011;1949;48.152;11.528;2024-02-15T02:54:59;1.60;;;1.40;;
3867;SDS011;1949;48.152;11.528;2024-02-15T02:57:24;1.47;;;1.23;;
3867;SDS011;1949;48.152;11.528;2024-02-15T02:59:51;1.37;;;1.20;;
3867;SDS011;1949;48.152;11.528;2024-02-15T03:02:16;1.80;;;1.03;;
3867;SDS011;1949;48.152;11.528;2024-02-15T03:04:42;1.90;;;1.20;;
3867;SDS011;1949;48.152;11.528;2024-02-15T03:07:10;2.00;;;1.13;;
3867;SDS011;1949;48.152;11.528;2024-02-15T03:09:35;4.80;;;1.13;;
3867;SDS011;1949;48.152;11.528;2024-02-15T03:12:03;1.10;;;0.93;;
3867;SDS011;1949;48.152;11.528;2024-02-15T03:14:29;2.07;;;1.00;;
3867;SDS011;1949;48.152;11.528;2024-02-15T03:16:56;1.00;;;0.90;;
3867;SDS011;1949;48.152;11.528;2024-02-15T03:19:22;2.20;;;1.30;;
3867;SDS011;1949;48.152;11.528;2024-02-15T03:21:48;10.70;;;1.20;;
3867;SDS011;1949;48.152;11.528;2024-02-15T03:24:14;1.20;;;1.10;;
3867;SDS011;1949;48.152;11.528;2024-02-15T03:26:40;1.13;;;1.03;;
3867;SDS011;1949;48.152;11.528;2024-02-15T03:29:07;3.73;;;1.43;;
3867;SDS011;1949;48.152;11.528;2024-02-15T03:31:33;1.57;;;1.30;;
3867;SDS011;1949;48.152;11.528;2024-02-15T03:34:01;2.90;;;1.20;;
3867;SDS011;1949;48.152;11.528;2024-02-15T03:36:30;1.50;;;1.00;;
3867;SDS011;1949;48.152;11.528;2024-02-15T03:38:56;1.00;;;0.90;;
3867;SDS011;1949;48.152;11.528;2024-02-15T03:41:22;1.73;;;1.00;;
3867;SDS011;1949;48.152;11.528;2024-02-15T03:43:48;2.60;;;1.40;;
3867;SDS011;1949;48.152;11.528;2024-02-15T03:46:14;1.10;;;1.00;;
3867;SDS011;1949;48.152;11.528;2024-02-15T03:48:42;1.97;;;1.00;;
3867;SDS011;1949;48.152;11.528;2024-02-15T03:51:15;1.30;;;1.17;;
3867;SDS011;1949;48.152;11.528;2024-02-15T03:53:43;2.83;;;1.30;;
3867;SDS011;1949;48.152;11.528;2024-02-15T03:56:09;1.10;;;1.00;;
3867;SDS011;1949;48.152;11.528;2024-02-15T03:58:35;2.43;;;1.10;;
3867;SDS011;1949;48.152;11.528;2024-02-15T04:01:01;1.00;;;0.80;;
3867;SDS011;1949;48.152;11.528;2024-02-15T04:03:30;1.13;;;0.93;;
3867;SDS011;1949;48.152;11.528;2024-02-15T04:05:57;1.47;;;1.13;;
3867;SDS011;1949;48.152;11.528;2024-02-15T04:08:23;1.83;;;1.10;;
3867;SDS011;1949;48.152;11.528;2024-02-15T04:10:49;1.03;;;0.93;;
3867;SDS011;1949;48.152;11.528;2024-02-15T04:13:15;1.20;;;0.90;;
3867;SDS011;1949;48.152;11.528;2024-02-15T04:15:41;3.70;;;1.03;;
3867;SDS011;1949;48.152;11.528;2024-02-15T04:18:08;5.77;;;2.63;;
3867;SDS011;1949;48.152;11.528;2024-02-15T04:20:37;2.80;;;1.63;;
3867;SDS011;1949;48.152;11.528;2024-02-15T04:23:03;2.90;;;2.20;;
3867;SDS011;1949;48.152;11.528;2024-02-15T04:25:31;2.53;;;1.50;;
3867;SDS011;1949;48.152;11.528;2024-02-15T04:27:56;2.33;;;1.37;;
3867;SDS011;1949;48.152;11.528;2024-02-15T04:30:24;1.37;;;1.10;;
3867;SDS011;1949;48.152;11.528;2024-02-15T04:32:51;1.50;;;1.27;;
3867;SDS011;1949;48.152;11.528;2024-02-15T04:35:17;1.17;;;1.07;;
3867;SDS011;1949;48.152;11.528;2024-02-15T04:37:45;3.67;;;1.00;;
3867;SDS011;1949;48.152;11.528;2024-02-15T04:40:12;2.13;;;1.33;;
3867;SDS011;1949;48.152;11.528;2024-02-15T04:42:38;2.00;;;1.60;;
3867;SDS011;1949;48.152;11.528;2024-02-15T04:45:05;3.17;;;1.27;;
3867;SDS011;1949;48.152;11.528;2024-02-15T04:47:38;3.83;;;1.43;;
3867;SDS011;1949;48.152;11.528;2024-02-15T04:50:06;1.90;;;1.50;;
3867;SDS011;1949;48.152;11.528;2024-02-15T04:52:32;2.20;;;1.47;;
3867;SDS011;1949;48.152;11.528;2024-02-15T04:54:58;16.33;;;7.70;;
3867;SDS011;1949;48.152;11.528;2024-02-15T04:57:24;10.70;;;4.90;;
3867;SDS011;1949;48.152;11.528;2024-02-15T04:59:53;5.73;;;2.40;;
3867;SDS011;1949;48.152;11.528;2024-02-15T05:02:20;2.50;;;1.53;;
3867;SDS011;1949;48.152;11.528;2024-02-15T05:04:47;1.97;;;1.43;;
3867;SDS011;1949;48.152;11.528;2024-02-15T05:07:13;1.27;;;0.93;;
3867;SDS011;1949;48.152;11.528;2024-02-15T05:09:42;4.60;;;1.40;;
3867;SDS011;1949;48.152;11.528;2024-02-15T05:12:08;7.07;;;3.70;;
3867;SDS011;1949;48.152;11.528;2024-02-15T05:14:33;6.47;;;1.50;;
3867;SDS011;1949;48.152;11.528;2024-02-15T05:17:01;2.47;;;1.23;;
3867;SDS011;1949;48.152;11.528;2024-02-15T05:19:27;3.37;;;1.10;;
3867;SDS011;1949;48.152;11.528;2024-02-15T05:21:55;2.53;;;1.37;;
3867;SDS011;1949;48.152;11.528;2024-02-15T05:24:20;1.20;;;0.97;;
3867;SDS011;1949;48.152;11.528;2024-02-15T05:26:46;1.73;;;1.17;;
3867;SDS011;1949;48.152;11.528;2024-02-15T05:29:12;2.50;;;1.20;;
3867;SDS011;1949;48.152;11.528;2024-02-15T05:31:38;1.30;;;1.00;;
3867;SDS011;1949;48.152;11.528;2024-02-15T05:34:07;3.50;;;1.60;;
3867;SDS011;1949;48.152;11.528;2024-02-15T05:36:36;2.17;;;1.50;;
3867;SDS011;1949;48.152;11.528;2024-02-15T05:39:03;2.13;;;1.50;;
3867;SDS011;1949;48.152;11.528;2024-02-15T05:41:30;2.13;;;1.20;;
3867;SDS011;1949;48.152;11.528;2024-02-15T05:43:59;2.50;;;1.13;;
3867;SDS011;1949;48.152;11.528;2024-02-15T05:46:25;2.80;;;1.10;;
3867;SDS011;1949;48.152;11.528;2024-02-15T05:48:53;5.17;;;1.73;;
3867;SDS011;1949;48.152;11.528;2024-02-15T05:51:19;1.87;;;1.17;;
3867;SDS011;1949;48.152;11.528;2024-02-15T05:53:46;9.70;;;1.30;;
3867;SDS011;1949;48.152;11.528;2024-02-15T05:56:12;1.80;;;1.20;;
3867;SDS011;1949;48.152;11.528;2024-02-15T05:58:39;2.03;;;1.03;;
3867;SDS011;1949;48.152;11.528;2024-02-15T06:01:05;3.13;;;1.50;;
3867;SDS011;1949;48.152;11.528;2024-02-15T06:03:32;3.37;;;1.23;;
3867;SDS011;1949;48.152;11.528;2024-02-15T06:06:01;11.17;;;3.77;;
3867;SDS011;1949;48.152;11.528;2024-02-15T06:08:31;2.97;;;1.83;;
3867;SDS011;1949;48.152;11.528;2024-02-15T06:10:58;8.50;;;3.23;;
3867;SDS011;1949;48.152;11.528;2024-02-15T06:13:23;5.97;;;2.60;;
3867;SDS011;1949;48.152;11.528;2024-02-15T06:15:50;2.70;;;1.60;;
3867;SDS011;1949;48.152;11.528;2024-02-15T06:18:23;3.90;;;1.70;;
3867;SDS011;1949;48.152;11.528;2024-02-15T06:20:51;2.80;;;1.23;;
3867;SDS011;1949;48.152;11.528;2024-02-15T06:23:17;4.97;;;1.70;;
3867;SDS011;1949;48.152;11.528;2024-02-15T06:25:43;6.80;;;1.60;;
3867;SDS011;1949;48.152;11.528;2024-02-15T06:28:17;2.00;;;1.40;;
3867;SDS011;1949;48.152;11.528;2024-02-15T06:31:09;1.77;;;1.00;;
3867;SDS011;1949;48.152;11.528;2024-02-15T06:33:55;3.10;;;1.10;;
3867;SDS011;1949;48.152;11.528;2024-02-15T06:36:45;3.43;;;1.20;;
3867;SDS011;1949;48.152;11.528;2024-02-15T06:39:39;5.13;;;1.93;;
3867;SDS011;1949;48.152;11.528;2024-02-15T06:42:13;4.90;;;1.90;;
3867;SDS011;1949;48.152;11.528;2024-02-15T06:44:44;1.70;;;1.00;;
3867;SDS011;1949;48.152;11.528;2024-02-15T06:47:16;4.20;;;1.07;;
3867;SDS011;1949;48.152;11.528;2024-02-15T06:49:46;14.87;;;4.93;;
3867;SDS011;1949;48.152;11.528;2024-02-15T06:52:15;3.80;;;1.57;;
3867;SDS011;1949;48.152;11.528;2024-02-15T06:54:42;4.13;;;1.53;;
3867;SDS011;1949;48.152;11.528;2024-02-15T06:57:10;15.70;;;6.53;;
3867;SDS011;1949;48.152;11.528;2024-02-15T06:59:46;5.33;;;2.00;;
3867;SDS011;1949;48.152;11.528;2024-02-15T07:02:13;5.60;;;3.10;;
3867;SDS011;1949;48.152;11.528;2024-02-15T07:04:38;12.07;;;4.90;;
3867;SDS011;1949;48.152;11.528;2024-02-15T07:09:39;6.37;;;2.40;;
3867;SDS011;1949;48.152;11.528;2024-02-15T07:12:07;5.63;;;2.50;;
3867;SDS011;1949;48.152;11.528;2024-02-15T07:14:41;2.80;;;1.77;;
3867;SDS011;1949;48.152;11.528;2024-02-15T07:17:08;5.43;;;3.10;;
3867;SDS011;1949;48.152;11.528;2024-02-15T07:19:35;10.37;;;1.87;;
3867;SDS011;1949;48.152;11.528;2024-02-15T07:22:16;2.73;;;1.73;;
3867;SDS011;1949;48.152;11.528;2024-02-15T07:24:42;8.00;;;2.07;;
3867;SDS011;1949;48.152;11.528;2024-02-15T07:27:09;8.00;;;3.13;;
3867;SDS011;1949;48.152;11.528;2024-02-15T07:29:36;5.50;;;1.87;;
3867;SDS011;1949;48.152;11.528;2024-02-15T07:32:05;8.97;;;2.93;;
3867;SDS011;1949;48.152;11.528;2024-02-15T07:34:31;3.17;;;1.90;;
3867;SDS011;1949;48.152;11.528;2024-02-15T07:37:01;4.93;;;2.80;;
3867;SDS011;1949;48.152;11.528;2024-02-15T07:39:28;8.23;;;2.60;;
3867;SDS011;1949;48.152;11.528;2024-02-15T07:41:54;8.03;;;4.00;;
3867;SDS011;1949;48.152;11.528;2024-02-15T07:44:20;11.40;;;2.20;;
3867;SDS011;1949;48.152;11.528;2024-02-15T07:46:47;4.13;;;2.40;;
3867;SDS011;1949;48.152;11.528;2024-02-15T07:49:15;10.80;;;2.73;;
3867;SDS011;1949;48.152;11.528;2024-02-15T07:51:44;3.23;;;1.33;;
3867;SDS011;1949;48.152;11.528;2024-02-15T07:54:10;3.03;;;1.73;;
3867;SDS011;1949;48.152;11.528;2024-02-15T07:56:38;5.70;;;1.67;;
3867;SDS011;1949;48.152;11.528;2024-02-15T07:59:04;3.80;;;1.90;;
3867;SDS011;1949;48.152;11.528;2024-02-15T08:01:30;4.57;;;1.50;;
3867;SDS011;1949;48.152;11.528;2024-02-15T08:03:58;2.20;;;1.47;;
3867;SDS011;1949;48.152;11.528;2024-02-15T08:06:24;3.93;;;1.60;;
3867;SDS011;1949;48.152;11.528;2024-02-15T08:08:52;7.50;;;1.37;;
3867;SDS011;1949;48.152;11.528;2024-02-15T08:11:18;9.57;;;2.10;;
3867;SDS011;1949;48.152;11.528;2024-02-15T08:13:51;24.60;;;9.40;;
3867;SDS011;1949;48.152;11.528;2024-02-15T08:16:20;5.90;;;2.07;;
3867;SDS011;1949;48.152;11.528;2024-02-15T08:18:52;5.97;;;2.80;;
3867;SDS011;1949;48.152;11.528;2024-02-15T08:21:34;12.33;;;4.60;;
3867;SDS011;1949;48.152;11.528;2024-02-15T08:24:03;6.60;;;3.37;;
3867;SDS011;1949;48.152;11.528;2024-02-15T08:26:33;5.83;;;1.70;;
3867;SDS011;1949;48.152;11.528;2024-02-15T08:29:03;3.70;;;1.30;;
3867;SDS011;1949;48.152;11.528;2024-02-15T08:31:31;4.97;;;1.93;;
3867;SDS011;1949;48.152;11.528;2024-02-15T08:33:57;11.07;;;1.70;;
3867;SDS011;1949;48.152;11.528;2024-02-15T08:36:23;6.57;;;2.63;;
3867;SDS011;1949;48.152;11.528;2024-02-15T08:38:50;6.10;;;1.87;;
3867;SDS011;1949;48.152;11.528;2024-02-15T08:41:17;10.47;;;2.57;;
3867;SDS011;1949;48.152;11.528;2024-02-15T08:43:44;3.53;;;1.70;;
3867;SDS011;1949;48.152;11.528;2024-02-15T08:46:12;11.80;;;4.77;;
3867;SDS011;1949;48.152;11.528;2024-02-15T08:48:40;5.63;;;2.47;;
3867;SDS011;1949;48.152;11.528;2024-02-15T08:51:06;11.20;;;1.63;;
3867;SDS011;1949;48.152;11.528;2024-02-15T08:53:35;5.23;;;1.97;;
3867;SDS011;1949;48.152;11.528;2024-02-15T08:56:03;7.00;;;1.80;;
3867;SDS011;1949;48.152;11.528;2024-02-15T08:58:30;4.83;;;1.90;;
3867;SDS011;1949;48.152;11.528;2024-02-15T09:00:57;5.80;;;2.60;;
3867;SDS011;1949;48.152;11.528;2024-02-15T09:03:23;9.67;;;3.60;;
3867;SDS011;1949;48.152;11.528;2024-02-15T09:05:53;3.70;;;2.00;;
3867;SDS011;1949;48.152;11.528;2024-02-15T09:08:19;6.20;;;3.40;;
3867;SDS011;1949;48.152;11.528;2024-02-15T09:10:49;3.10;;;1.80;;
3867;SDS011;1949;48.152;11.528;2024-02-15T09:13:15;2.90;;;1.97;;
3867;SDS011;1949;48.152;11.528;2024-02-15T09:15:42;12.23;;;3.10;;
3867;SDS011;1949;48.152;11.528;2024-02-15T09:18:08;5.07;;;2.33;;
3867;SDS011;1949;48.152;11.528;2024-02-15T09:20:37;10.00;;;4.07;;
3867;SDS011;1949;48.152;11.528;2024-02-15T09:23:05;4.30;;;1.63;;
3867;SDS011;1949;48.152;11.528;2024-02-15T09:25:34;9.30;;;2.90;;
3867;SDS011;1949;48.152;11.528;2024-02-15T09:28:03;3.07;;;2.13;;
3867;SDS011;1949;48.152;11.528;2024-02-15T09:30:28;2.50;;;2.03;;
3867;SDS011;1949;48.152;11.528;2024-02-15T09:32:58;3.43;;;2.00;;
3867;SDS011;1949;48.152;11.528;2024-02-15T09:35:25;3.77;;;2.60;;
3867;SDS011;1949;48.152;11.528;2024-02-15T09:37:57;6.90;;;3.23;;
3867;SDS011;1949;48.152;11.528;2024-02-15T09:40:23;3.23;;;1.70;;
3867;SDS011;1949;48.152;11.528;2024-02-15T09:42:54;1.93;;;1.60;;
3867;SDS011;1949;48.152;11.528;2024-02-15T09:45:20;11.00;;;1.77;;
3867;SDS011;1949;48.152;11.528;2024-02-15T09:47:47;28.40;;;13.97;;
3867;SDS011;1949;48.152;11.528;2024-02-15T09:50:16;14.03;;;6.17;;
3867;SDS011;1949;48.152;11.528;2024-02-15T09:55:14;1.90;;;1.27;;
3867;SDS011;1949;48.152;11.528;2024-02-15T09:57:45;1.83;;;1.33;;
3867;SDS011;1949;48.152;11.528;2024-02-15T10:00:12;3.47;;;1.50;;
3867;SDS011;1949;48.152;11.528;2024-02-15T10:02:42;4.63;;;1.20;;
3867;SDS011;1949;48.152;11.528;2024-02-15T10:05:10;8.33;;;2.87;;
3867;SDS011;1949;48.152;11.528;2024-02-15T10:07:43;6.30;;;3.10;;
3867;SDS011;1949;48.152;11.528;2024-02-15T10:10:19;3.90;;;2.43;;
3867;SDS011;1949;48.152;11.528;2024-02-15T10:12:50;4.63;;;2.37;;
3867;SDS011;1949;48.152;11.528;2024-02-15T10:18:08;4.80;;;2.33;;
3867;SDS011;1949;48.152;11.528;2024-02-15T10:20:40;3.13;;;1.33;;
3867;SDS011;1949;48.152;11.528;2024-02-15T10:23:09;4.90;;;2.77;;
3867;SDS011;1949;48.152;11.528;2024-02-15T10:25:36;5.83;;;2.20;;
3867;SDS011;1949;48.152;11.528;2024-02-15T10:28:03;7.63;;;3.70;;
3867;SDS011;1949;48.152;11.528;2024-02-15T10:30:39;6.10;;;3.20;;
3867;SDS011;1949;48.152;11.528;2024-02-15T10:33:10;3.87;;;2.10;;
3867;SDS011;1949;48.152;11.528;2024-02-15T10:36:08;5.83;;;3.10;;
3867;SDS011;1949;48.152;11.528;2024-02-15T10:38:36;5.57;;;2.97;;
3867;SDS011;1949;48.152;11.528;2024-02-15T10:41:05;7.17;;;3.40;;
3867;SDS011;1949;48.152;11.528;2024-02-15T10:43:35;3.87;;;2.30;;
3867;SDS011;1949;48.152;11.528;2024-02-15T10:46:04;3.47;;;1.40;;
3867;SDS011;1949;48.152;11.528;2024-02-15T10:48:35;4.33;;;2.90;;
3867;SDS011;1949;48.152;11.528;2024-02-15T10:51:02;2.70;;;1.83;;
3867;SDS011;1949;48.152;11.528;2024-02-15T10:53:30;2.43;;;1.80;;
3867;SDS011;1949;48.152;11.528;2024-02-15T10:58:34;2.97;;;2.43;;
3867;SDS011;1949;48.152;11.528;2024-02-15T11:01:11;3.90;;;1.60;;
3867;SDS011;1949;48.152;11.528;2024-02-15T11:03:55;5.70;;;2.93;;
3867;SDS011;1949;48.152;11.528;2024-02-15T11:06:26;6.40;;;3.03;;
3867;SDS011;1949;48.152;11.528;2024-02-15T11:08:55;8.47;;;2.53;;
3867;SDS011;1949;48.152;11.528;2024-02-15T11:11:21;3.87;;;1.77;;
3867;SDS011;1949;48.152;11.528;2024-02-15T11:13:47;1.70;;;1.20;;
3867;SDS011;1949;48.152;11.528;2024-02-15T11:21:58;6.23;;;2.90;;
3867;SDS011;1949;48.152;11.528;2024-02-15T11:24:28;6.20;;;2.33;;
3867;SDS011;1949;48.152;11.528;2024-02-15T11:26:58;9.23;;;3.90;;
3867;SDS011;1949;48.152;11.528;2024-02-15T11:35:11;3.90;;;2.03;;
3867;SDS011;1949;48.152;11.528;2024-02-15T11:43:06;1.73;;;1.40;;
3867;SDS011;1949;48.152;11.528;2024-02-15T11:45:33;9.03;;;1.30;;
3867;SDS011;1949;48.152;11.528;2024-02-15T11:48:06;2.00;;;1.50;;
3867;SDS011;1949;48.152;11.528;2024-02-15T11:50:35;3.37;;;1.33;;
3867;SDS011;1949;48.152;11.528;2024-02-15T11:53:06;2.70;;;1.67;;
3867;SDS011;1949;48.152;11.528;2024-02-15T11:55:36;3.20;;;1.13;;
3867;SDS011;1949;48.152;11.528;2024-02-15T11:58:06;12.93;;;1.30;;
3867;SDS011;1949;48.152;11.528;2024-02-15T12:00:33;3.53;;;1.90;;
3867;SDS011;1949;48.152;11.528;2024-02-15T12:03:17;2.77;;;1.50;;
3867;SDS011;1949;48.152;11.528;2024-02-15T12:06:02;1.50;;;1.20;;
3867;SDS011;1949;48.152;11.528;2024-02-15T12:08:47;1.60;;;1.37;;
3867;SDS011;1949;48.152;11.528;2024-02-15T12:11:32;6.80;;;1.80;;
3867;SDS011;1949;48.152;11.528;2024-02-15T12:14:17;2.97;;;2.00;;
3867;SDS011;1949;48.152;11.528;2024-02-15T12:17:05;1.97;;;1.30;;
3867;SDS011;1949;48.152;11.528;2024-02-15T12:19:55;1.30;;;0.97;;
3867;SDS011;1949;48.152;11.528;2024-02-15T12:24:55;11.30;;;4.60;;
3867;SDS011;1949;48.152;11.528;2024-02-15T12:27:25;35.83;;;16.30;;
3867;SDS011;1949;48.152;11.528;2024-02-15T12:29:55;52.77;;;23.87;;
3867;SDS011;1949;48.152;11.528;2024-02-15T12:32:23;35.77;;;16.97;;
3867;SDS011;1949;48.152;11.528;2024-02-15T12:34:50;30.80;;;13.37;;
3867;SDS011;1949;48.152;11.528;2024-02-15T12:37:22;3.00;;;1.43;;
3867;SDS011;1949;48.152;11.528;2024-02-15T12:39:49;12.60;;;5.07;;
3867;SDS011;1949;48.152;11.528;2024-02-15T12:42:16;41.07;;;11.47;;
3867;SDS011;1949;48.152;11.528;2024-02-15T12:44:45;22.40;;;10.67;;
3867;SDS011;1949;48.152;11.528;2024-02-15T12:47:21;10.90;;;5.47;;
3867;SDS011;1949;48.152;11.528;2024-02-15T12:49:50;10.17;;;4.90;;
3867;SDS011;1949;48.152;11.528;2024-02-15T12:52:32;12.10;;;6.00;;
3867;SDS011;1949;48.152;11.528;2024-02-15T12:55:09;14.43;;;6.23;;
3867;SDS011;1949;48.152;11.528;2024-02-15T12:57:37;8.50;;;3.00;;
3867;SDS011;1949;48.152;11.528;2024-02-15T13:00:08;4.33;;;2.43;;
3867;SDS011;1949;48.152;11.528;2024-02-15T13:02:42;6.13;;;3.07;;
3867;SDS011;1949;48.152;11.528;2024-02-15T13:05:09;11.53;;;4.30;;
3867;SDS011;1949;48.152;11.528;2024-02-15T13:07:37;9.10;;;4.13;;
3867;SDS011;1949;48.152;11.528;2024-02-15T13:10:04;7.47;;;3.90;;
3867;SDS011;1949;48.152;11.528;2024-02-15T13:12:32;3.70;;;2.60;;
3867;SDS011;1949;48.152;11.528;2024-02-15T13:15:00;5.97;;;3.10;;
3867;SDS011;1949;48.152;11.528;2024-02-15T13:17:29;18.67;;;5.20;;
3867;SDS011;1949;48.152;11.528;2024-02-15T13:19:56;11.10;;;4.90;;
3867;SDS011;1949;48.152;11.528;2024-02-15T13:22:29;12.23;;;4.17;;
3867;SDS011;1949;48.152;11.528;2024-02-15T13:24:59;2.07;;;1.50;;
3867;SDS011;1949;48.152;11.528;2024-02-15T13:27:24;6.03;;;2.80;;
3867;SDS011;1949;48.152;11.528;2024-02-15T13:29:51;25.87;;;10.20;;
3867;SDS011;1949;48.152;11.528;2024-02-15T13:32:18;12.00;;;5.70;;
3867;SDS011;1949;48.152;11.528;2024-02-15T13:34:48;28.87;;;13.53;;
3867;SDS011;1949;48.152;11.528;2024-02-15T13:39:48;26.17;;;15.10;;
3867;SDS011;1949;48.152;11.528;2024-02-15T13:42:15;17.17;;;8.53;;
3867;SDS011;1949;48.152;11.528;2024-02-15T13:44:49;15.13;;;8.53;;
3867;SDS011;1949;48.152;11.528;2024-02-15T13:47:15;27.33;;;9.93;;
3867;SDS011;1949;48.152;11.528;2024-02-15T13:49:41;16.80;;;8.33;;
3867;SDS011;1949;48.152;11.528;2024-02-15T13:52:08;27.03;;;10.93;;
3867;SDS011;1949;48.152;11.528;2024-02-15T13:54:40;15.67;;;6.97;;
3867;SDS011;1949;48.152;11.528;2024-02-15T13:57:07;18.30;;;7.47;;
3867;SDS011;1949;48.152;11.528;2024-02-15T13:59:33;21.87;;;10.80;;
3867;SDS011;1949;48.152;11.528;2024-02-15T14:01:59;7.63;;;3.60;;
3867;SDS011;1949;48.152;11.528;2024-02-15T14:04:27;20.37;;;11.20;;
3867;SDS011;1949;48.152;11.528;2024-02-15T14:06:53;19.00;;;10.30;;
3867;SDS011;1949;48.152;11.528;2024-02-15T14:09:19;26.53;;;11.73;;
3867;SDS011;1949;48.152;11.528;2024-02-15T14:11:45;29.27;;;14.97;;
3867;SDS011;1949;48.152;11.528;2024-02-15T14:14:16;26.87;;;14.07;;
3867;SDS011;1949;48.152;11.528;2024-02-15T14:16:42;66.23;;;30.83;;
3867;SDS011;1949;48.152;11.528;2024-02-15T14:19:08;39.47;;;19.80;;
3867;SDS011;1949;48.152;11.528;2024-02-15T14:21:33;19.67;;;10.97;;
3867;SDS011;1949;48.152;11.528;2024-02-15T14:24:03;27.77;;;14.93;;
3867;SDS011;1949;48.152;11.528;2024-02-15T14:26:37;15.93;;;7.93;;
3867;SDS011;1949;48.152;11.528;2024-02-15T14:29:10;27.13;;;14.17;;
3867;SDS011;1949;48.152;11.528;2024-02-15T14:31:40;32.07;;;16.73;;
3867;SDS011;1949;48.152;11.528;2024-02-15T14:34:24;35.60;;;18.03;;
3867;SDS011;1949;48.152;11.528;2024-02-15T14:36:51;46.20;;;23.67;;
3867;SDS011;1949;48.152;11.528;2024-02-15T14:39:20;35.23;;;18.23;;
3867;SDS011;1949;48.152;11.528;2024-02-15T14:41:52;31.97;;;15.17;;
3867;SDS011;1949;48.152;11.528;2024-02-15T14:46:58;17.30;;;9.23;;
3867;SDS011;1949;48.152;11.528;2024-02-15T14:49:25;26.83;;;13.07;;
3867;SDS011;1949;48.152;11.528;2024-02-15T14:51:54;28.50;;;10.93;;
3867;SDS011;1949;48.152;11.528;2024-02-15T14:54:20;17.20;;;8.30;;
3867;SDS011;1949;48.152;11.528;2024-02-15T14:56:46;13.63;;;6.60;;
3867;SDS011;1949;48.152;11.528;2024-02-15T14:59:12;11.80;;;6.70;;
3867;SDS011;1949;48.152;11.528;2024-02-15T15:01:43;11.57;;;6.37;;
3867;SDS011;1949;48.152;11.528;2024-02-15T15:04:09;12.17;;;6.70;;
3867;SDS011;1949;48.152;11.528;2024-02-15T15:06:36;10.37;;;4.77;;
3867;SDS011;1949;48.152;11.528;2024-02-15T15:09:21;16.03;;;7.00;;
3867;SDS011;1949;48.152;11.528;2024-02-15T15:12:06;11.90;;;5.43;;
3867;SDS011;1949;48.152;11.528;2024-02-15T15:14:50;15.30;;;7.10;;
3867;SDS011;1949;48.152;11.528;2024-02-15T15:19:47;12.47;;;6.60;;
3867;SDS011;1949;48.152;11.528;2024-02-15T15:22:14;11.17;;;5.30;;
3867;SDS011;1949;48.152;11.528;2024-02-15T15:24:40;11.03;;;4.27;;
3867;SDS011;1949;48.152;11.528;2024-02-15T15:27:05;17.30;;;7.60;;
3867;SDS011;1949;48.152;11.528;2024-02-15T15:29:39;14.20;;;5.63;;
3867;SDS011;1949;48.152;11.528;2024-02-15T15:32:06;10.10;;;5.17;;
3867;SDS011;1949;48.152;11.528;2024-02-15T15:34:33;10.67;;;5.83;;
3867;SDS011;1949;48.152;11.528;2024-02-15T15:37:01;9.00;;;4.73;;
3867;SDS011;1949;48.152;11.528;2024-02-15T15:39:26;7.57;;;4.20;;
3867;SDS011;1949;48.152;11.528;2024-02-15T15:42:00;8.53;;;4.60;;
3867;SDS011;1949;48.152;11.528;2024-02-15T15:44:31;8.83;;;5.07;;
3867;SDS011;1949;48.152;11.528;2024-02-15T15:46:56;11.43;;;4.20;;